Time;durP1;ratioP1;P1;durP2;ratioP2;P2;SDS_P1;SDS_P2;PMS_P1;PMS_P2;Temp;Humidity;BMP_temperature;BMP_pressure;BME280_temperature;BME280_humidity;BME280_pressure;Samples;Min_cycle;Max_cycle;Signal;HPM_P1;HPM_P2
2024/04/13 00:02:15;;;;;;;3.23;2.90;;;16.20;99.90;;;;;;5491348;26;20455;-67
2024/04/13 00:04:41;;;;;;;2.90;2.70;;;16.20;99.90;;;;;;5491281;26;20226;-66
2024/04/13 00:07:11;;;;;;;4.03;2.57;;;16.20;99.90;;;;;;5491147;26;20448;-66
2024/04/13 00:09:37;;;;;;;2.60;2.40;;;16.20;99.90;;;;;;5491324;26;20214;-66
2024/04/13 00:12:06;;;;;;;5.60;2.57;;;16.20;99.90;;;;;;5491316;26;20443;-66
2024/04/13 00:14:33;;;;;;;2.73;2.60;;;16.20;99.90;;;;;;5491184;26;20236;-66
2024/04/13 00:17:02;;;;;;;4.83;2.73;;;16.10;99.90;;;;;;5491115;26;20443;-66
2024/04/13 00:19:27;;;;;;;2.73;2.53;;;16.10;99.90;;;;;;5491035;26;20439;-66
2024/04/13 00:21:57;;;;;;;2.80;2.60;;;16.10;99.90;;;;;;5491064;26;20502;-66
2024/04/13 00:24:26;;;;;;;2.70;2.50;;;16.10;99.90;;;;;;5491026;26;20717;-66
2024/04/13 00:26:54;;;;;;;2.73;2.63;;;16.10;99.90;;;;;;5490871;26;20483;-66
2024/04/13 00:29:20;;;;;;;2.93;2.67;;;16.10;99.90;;;;;;5491237;26;21022;-66
2024/04/13 00:31:48;;;;;;;2.10;2.00;;;16.10;99.90;;;;;;5490903;26;20442;-66
2024/04/13 00:34:14;;;;;;;2.70;2.53;;;16.10;99.90;;;;;;5490962;26;20451;-66
2024/04/13 00:36:42;;;;;;;2.80;2.70;;;16.10;99.90;;;;;;5490840;26;20491;-66
2024/04/13 00:39:08;;;;;;;2.77;2.43;;;16.00;99.90;;;;;;5490814;26;20214;-66
2024/04/13 00:41:39;;;;;;;3.07;2.87;;;16.00;99.90;;;;;;5490802;26;20499;-66
2024/04/13 00:44:05;;;;;;;2.70;2.50;;;16.00;99.90;;;;;;5490849;26;20443;-66
2024/04/13 00:46:33;;;;;;;3.83;2.80;;;16.00;99.90;;;;;;5490520;26;20493;-66
2024/04/13 00:49:00;;;;;;;3.03;2.73;;;16.00;99.90;;;;;;5490705;26;20206;-66
2024/04/13 00:51:29;;;;;;;2.60;2.40;;;15.90;99.90;;;;;;5490605;26;20455;-66
2024/04/13 00:53:55;;;;;;;2.73;2.53;;;15.90;99.90;;;;;;5490559;26;20455;-66
2024/04/13 00:56:24;;;;;;;4.63;2.90;;;15.90;99.90;;;;;;5490402;26;20515;-66
2024/04/13 00:58:52;;;;;;;3.30;2.50;;;16.00;99.90;;;;;;5490441;26;20435;-66
2024/04/13 01:01:21;;;;;;;2.70;2.50;;;16.00;99.90;;;;;;5490456;26;20463;-66
2024/04/13 01:03:48;;;;;;;3.10;2.90;;;16.00;99.90;;;;;;5490489;26;20450;-66
2024/04/13 01:06:16;;;;;;;2.80;2.60;;;15.90;99.90;;;;;;5490371;26;20455;-66
2024/04/13 01:08:42;;;;;;;3.27;2.60;;;15.90;99.90;;;;;;5490103;26;20491;-66
2024/04/13 01:11:12;;;;;;;3.00;2.80;;;15.90;99.90;;;;;;5490358;26;20961;-66
2024/04/13 01:13:40;;;;;;;2.67;2.47;;;15.90;99.90;;;;;;5490472;26;20213;-66
2024/04/13 01:16:11;;;;;;;3.10;2.90;;;15.90;99.90;;;;;;5490358;26;20530;-66
2024/04/13 01:18:36;;;;;;;2.80;2.60;;;15.90;99.90;;;;;;5490261;26;20463;-66
2024/04/13 01:21:05;;;;;;;3.30;3.10;;;15.90;99.90;;;;;;5490367;26;20498;-66
2024/04/13 01:23:35;;;;;;;3.10;2.60;;;15.90;99.90;;;;;;5490181;26;20214;-66
2024/04/13 01:26:07;;;;;;;4.30;2.43;;;15.90;99.90;;;;;;5490654;26;20447;-66
2024/04/13 01:28:33;;;;;;;3.00;2.80;;;15.90;99.90;;;;;;5490125;26;20439;-66
2024/04/13 01:31:02;;;;;;;5.83;3.17;;;15.90;99.90;;;;;;5490307;26;20555;-66
2024/04/13 01:33:28;;;;;;;3.07;2.80;;;15.90;99.90;;;;;;5490104;26;20483;-66
2024/04/13 01:35:59;;;;;;;3.87;2.60;;;15.90;99.90;;;;;;5490140;26;20450;-66
2024/04/13 01:38:24;;;;;;;2.77;2.57;;;15.90;99.90;;;;;;5489987;26;20514;-66
2024/04/13 01:40:52;;;;;;;2.90;2.70;;;15.90;99.90;;;;;;5489953;26;21067;-66
2024/04/13 01:43:21;;;;;;;2.90;2.80;;;15.90;99.90;;;;;;5489922;26;20217;-66
2024/04/13 01:45:50;;;;;;;2.97;2.63;;;15.90;99.90;;;;;;5489757;26;20518;-66
2024/04/13 01:48:17;;;;;;;2.90;2.70;;;15.90;99.90;;;;;;5489995;26;20439;-66
2024/04/13 01:50:46;;;;;;;3.00;2.80;;;15.90;99.90;;;;;;5489846;26;20961;-66
2024/04/13 01:53:11;;;;;;;3.20;2.90;;;16.00;99.90;;;;;;5489719;26;20442;-66
2024/04/13 01:55:39;;;;;;;3.43;3.13;;;15.90;99.90;;;;;;5489580;26;20474;-66
2024/04/13 01:58:05;;;;;;;3.50;3.30;;;15.90;99.90;;;;;;5489749;26;20523;-66
2024/04/13 02:00:37;;;;;;;3.00;2.80;;;15.90;99.90;;;;;;5489723;26;20494;-66
2024/04/13 02:03:03;;;;;;;3.27;3.07;;;15.90;99.90;;;;;;5489615;26;20214;-66
2024/04/13 02:05:35;;;;;;;3.40;3.10;;;15.90;99.90;;;;;;5489539;26;20495;-66
2024/04/13 02:08:02;;;;;;;2.93;2.63;;;15.90;99.90;;;;;;5489503;26;21022;-66
2024/04/13 02:10:31;;;;;;;2.90;2.70;;;15.90;99.90;;;;;;5489593;26;20439;-66
2024/04/13 02:12:57;;;;;;;3.40;3.10;;;15.90;99.90;;;;;;5489497;26;20488;-66
2024/04/13 02:15:25;;;;;;;2.90;2.70;;;15.90;99.90;;;;;;5489402;26;20451;-66
2024/04/13 02:17:53;;;;;;;7.50;4.10;;;15.90;99.90;;;;;;5489378;26;20473;-66
2024/04/13 02:20:21;;;;;;;3.50;3.20;;;15.90;99.90;;;;;;5488095;26;20447;-66
2024/04/13 02:22:47;;;;;;;3.60;3.30;;;15.90;99.90;;;;;;5489299;26;20447;-66
2024/04/13 02:25:16;;;;;;;3.63;3.33;;;15.80;99.90;;;;;;5489205;26;20447;-66
2024/04/13 02:27:41;;;;;;;4.03;3.30;;;15.80;99.90;;;;;;5489323;26;20496;-66
2024/04/13 02:30:11;;;;;;;3.33;3.13;;;15.80;99.90;;;;;;5489414;26;20443;-66
2024/04/13 02:32:37;;;;;;;3.43;3.17;;;15.80;99.90;;;;;;5489079;26;20237;-66
2024/04/13 02:35:08;;;;;;;3.87;3.30;;;15.80;99.90;;;;;;5489176;26;20452;-66
2024/04/13 02:37:34;;;;;;;3.30;3.00;;;15.80;99.90;;;;;;5489070;26;20451;-66
2024/04/13 02:40:07;;;;;;;3.83;3.53;;;15.80;99.90;;;;;;5488905;26;20500;-66
2024/04/13 02:42:33;;;;;;;5.33;3.80;;;15.70;99.90;;;;;;5488998;26;20447;-66
2024/04/13 02:45:01;;;;;;;3.10;2.90;;;15.70;99.90;;;;;;5488858;26;20451;-66
2024/04/13 02:47:27;;;;;;;4.23;3.87;;;15.70;99.90;;;;;;5488766;26;20584;-66
2024/04/13 02:49:55;;;;;;;5.43;5.00;;;15.70;99.90;;;;;;5488733;26;20563;-66
2024/04/13 02:52:23;;;;;;;3.10;2.50;;;15.70;99.90;;;;;;5488561;26;20726;-66
2024/04/13 02:54:51;;;;;;;3.50;3.20;;;15.70;99.90;;;;;;5488369;26;20474;-66
2024/04/13 02:57:16;;;;;;;3.40;3.10;;;15.60;99.90;;;;;;5488698;26;21010;-66
2024/04/13 02:59:45;;;;;;;4.17;3.73;;;15.60;99.90;;;;;;5488532;26;20459;-66
2024/04/13 03:02:12;;;;;;;3.30;3.10;;;15.60;99.90;;;;;;5488515;26;20681;-66
2024/04/13 03:04:40;;;;;;;3.40;3.20;;;15.50;99.90;;;;;;5488506;26;20447;-66
2024/04/13 03:07:06;;;;;;;3.40;3.20;;;15.50;99.90;;;;;;5488391;26;20442;-66
2024/04/13 03:09:37;;;;;;;3.67;3.37;;;15.50;99.90;;;;;;5488545;26;20497;-66
2024/04/13 03:12:03;;;;;;;4.00;3.70;;;15.50;99.90;;;;;;5488402;26;20217;-66
2024/04/13 03:14:31;;;;;;;4.60;3.33;;;15.50;99.90;;;;;;5488381;26;20447;-66
2024/04/13 03:16:57;;;;;;;3.53;3.33;;;15.50;99.90;;;;;;5488385;26;20446;-66
2024/04/13 03:19:25;;;;;;;6.47;3.53;;;15.40;99.90;;;;;;5488297;26;20848;-66
2024/04/13 03:21:50;;;;;;;5.43;3.57;;;15.40;99.90;;;;;;5488120;26;20214;-66
2024/04/13 03:24:19;;;;;;;3.70;3.40;;;15.40;99.90;;;;;;5488149;26;20447;-66
2024/04/13 03:26:47;;;;;;;4.23;3.83;;;15.30;99.90;;;;;;5487988;26;20248;-66
2024/04/13 03:29:15;;;;;;;3.37;3.17;;;15.30;99.90;;;;;;5487961;26;20563;-66
2024/04/13 03:31:41;;;;;;;4.63;3.40;;;15.20;99.90;;;;;;5489154;26;20541;-66
2024/04/13 03:34:09;;;;;;;3.77;3.47;;;15.20;99.90;;;;;;5491851;26;20505;-66
2024/04/13 03:36:35;;;;;;;3.90;3.60;;;15.20;99.90;;;;;;5491904;26;20913;-66
2024/04/13 03:39:04;;;;;;;4.90;4.50;;;15.20;99.90;;;;;;5491718;26;20451;-66
2024/04/13 03:41:32;;;;;;;3.93;3.63;;;15.10;99.90;;;;;;5491589;26;20214;-66
2024/04/13 03:44:00;;;;;;;3.70;3.50;;;15.10;99.90;;;;;;5491655;26;20447;-66
2024/04/13 03:46:28;;;;;;;6.80;3.47;;;15.10;99.90;;;;;;5491535;26;20459;-66
2024/04/13 03:48:54;;;;;;;4.47;4.00;;;15.10;99.90;;;;;;5491529;26;20443;-66
2024/04/13 03:51:22;;;;;;;4.20;3.90;;;15.00;99.90;;;;;;5491645;26;20500;-66
2024/04/13 03:53:47;;;;;;;4.47;4.07;;;15.00;99.90;;;;;;5491477;26;20577;-66
2024/04/13 03:56:16;;;;;;;4.50;4.20;;;15.00;99.90;;;;;;5491532;26;20479;-66
2024/04/13 03:58:42;;;;;;;4.50;4.10;;;15.00;99.90;;;;;;5491476;26;20557;-66
2024/04/13 04:01:12;;;;;;;4.20;3.90;;;15.00;99.90;;;;;;5491394;26;20447;-66
2024/04/13 04:03:38;;;;;;;5.00;4.50;;;15.00;99.90;;;;;;5491348;26;20213;-66
2024/04/13 04:06:07;;;;;;;5.17;4.10;;;15.00;99.90;;;;;;5491248;26;20965;-66
2024/04/13 04:08:33;;;;;;;7.40;4.33;;;14.90;99.90;;;;;;5491197;26;20216;-66
2024/04/13 04:11:01;;;;;;;4.00;3.70;;;15.00;99.90;;;;;;5491260;26;20549;-66
2024/04/13 04:13:27;;;;;;;4.53;4.00;;;14.90;99.90;;;;;;5491236;26;20451;-66
2024/04/13 04:15:55;;;;;;;5.77;4.90;;;14.90;99.90;;;;;;5491268;26;20450;-66
2024/04/13 04:18:23;;;;;;;4.50;4.20;;;14.90;99.90;;;;;;5491171;26;20220;-66
2024/04/13 04:20:51;;;;;;;4.13;3.83;;;14.90;99.90;;;;;;5491068;26;20463;-66
2024/04/13 04:23:17;;;;;;;4.40;3.93;;;14.90;99.90;;;;;;5491017;26;20949;-66
2024/04/13 04:25:46;;;;;;;5.33;4.20;;;14.90;99.90;;;;;;5490981;26;20454;-66
2024/04/13 04:28:12;;;;;;;3.53;3.33;;;14.90;99.90;;;;;;5490955;26;20560;-66
2024/04/13 04:30:40;;;;;;;6.20;4.07;;;14.90;99.90;;;;;;5490944;26;20455;-66
2024/04/13 04:33:05;;;;;;;5.20;4.80;;;15.00;99.90;;;;;;5490875;26;20689;-66
2024/04/13 04:35:37;;;;;;;4.47;4.10;;;15.00;99.90;;;;;;5490821;26;20490;-66
2024/04/13 04:38:03;;;;;;;4.43;4.13;;;15.00;99.90;;;;;;5490927;26;20290;-66
2024/04/13 04:40:31;;;;;;;7.03;4.23;;;15.00;99.90;;;;;;5490786;26;20447;-66
2024/04/13 04:42:56;;;;;;;5.57;4.47;;;15.10;99.90;;;;;;5490040;26;20478;-66
2024/04/13 04:45:25;;;;;;;4.60;4.30;;;15.10;99.90;;;;;;5490618;26;20443;-66
2024/04/13 04:47:50;;;;;;;4.60;4.20;;;15.20;99.90;;;;;;5490669;26;20278;-66
2024/04/13 04:50:18;;;;;;;7.60;4.13;;;15.20;99.90;;;;;;5490549;26;20467;-66
2024/04/13 04:52:47;;;;;;;4.50;4.10;;;15.20;99.90;;;;;;5490680;26;20529;-66
2024/04/13 04:55:15;;;;;;;4.47;4.07;;;15.30;99.90;;;;;;5490557;26;21120;-66
2024/04/13 04:57:41;;;;;;;5.33;4.93;;;15.40;99.90;;;;;;5490694;26;20442;-66
2024/04/13 05:00:14;;;;;;;4.80;4.30;;;15.40;99.90;;;;;;5490589;26;20878;-66
2024/04/13 05:02:40;;;;;;;4.53;4.13;;;15.40;99.90;;;;;;5490438;26;20443;-66
2024/04/13 05:05:08;;;;;;;7.03;4.67;;;15.40;99.90;;;;;;5490541;26;20510;-66
2024/04/13 05:07:34;;;;;;;4.50;4.20;;;15.50;99.90;;;;;;5490357;26;20455;-66
2024/04/13 05:10:06;;;;;;;4.97;4.60;;;15.50;99.90;;;;;;5490296;26;20500;-66
2024/04/13 05:12:33;;;;;;;5.03;4.60;;;15.60;99.90;;;;;;5490414;26;20231;-66
2024/04/13 05:15:01;;;;;;;4.83;3.93;;;15.50;99.90;;;;;;5490243;26;20958;-66
2024/04/13 05:17:28;;;;;;;5.43;4.50;;;15.60;99.90;;;;;;5490275;26;20678;-66
2024/04/13 05:19:56;;;;;;;5.13;4.60;;;15.60;99.90;;;;;;5490236;26;20463;-66
2024/04/13 05:22:21;;;;;;;5.00;4.43;;;15.60;99.90;;;;;;5490256;26;20487;-66
2024/04/13 05:24:49;;;;;;;4.87;4.47;;;15.60;99.90;;;;;;5490158;26;20459;-66
2024/04/13 05:27:18;;;;;;;4.33;4.03;;;15.70;99.90;;;;;;5490061;26;20218;-66
2024/04/13 05:29:52;;;;;;;4.40;3.90;;;15.70;99.90;;;;;;5489995;26;20496;-66
2024/04/13 05:32:18;;;;;;;5.00;4.57;;;15.80;99.90;;;;;;5490118;26;20439;-66
2024/04/13 05:34:47;;;;;;;5.00;4.67;;;15.90;99.90;;;;;;5489862;26;20485;-66
2024/04/13 05:37:13;;;;;;;5.13;4.50;;;16.10;99.90;;;;;;5489904;26;20447;-66
2024/04/13 05:39:41;;;;;;;5.10;4.60;;;16.30;99.90;;;;;;5489939;26;20446;-66
2024/04/13 05:42:06;;;;;;;8.43;4.80;;;16.40;99.90;;;;;;5489849;26;20206;-66
2024/04/13 05:44:37;;;;;;;4.70;4.33;;;16.50;99.90;;;;;;5489936;26;20498;-66
2024/04/13 05:47:03;;;;;;;4.47;4.07;;;16.60;99.90;;;;;;5489797;26;20233;-66
2024/04/13 05:49:31;;;;;;;4.50;4.20;;;16.70;99.90;;;;;;5489855;26;20451;-66
2024/04/13 05:51:57;;;;;;;5.27;4.67;;;16.70;99.90;;;;;;5489744;26;20963;-66
2024/04/13 05:54:25;;;;;;;5.17;4.67;;;16.60;99.90;;;;;;5489077;26;20451;-66
2024/04/13 05:56:52;;;;;;;5.53;5.03;;;16.60;99.90;;;;;;5488703;26;20236;-66
2024/04/13 05:59:20;;;;;;;4.47;4.07;;;16.60;99.90;;;;;;5489654;26;20451;-66
2024/04/13 06:01:48;;;;;;;4.23;3.80;;;16.60;99.90;;;;;;5489609;26;20447;-66
2024/04/13 06:04:16;;;;;;;4.40;4.00;;;16.70;99.90;;;;;;5489493;26;20507;-66
2024/04/13 06:06:42;;;;;;;4.83;4.53;;;16.90;99.90;;;;;;5489353;26;20499;-66
2024/04/13 06:09:10;;;;;;;4.57;4.17;;;17.10;99.90;;;;;;5489460;26;20450;-66
2024/04/13 06:11:36;;;;;;;4.33;3.93;;;17.30;99.90;;;;;;5489393;26;20214;-66
2024/04/13 06:14:04;;;;;;;4.90;4.50;;;17.50;99.90;;;;;;5489413;26;20524;-66
2024/04/13 06:16:29;;;;;;;6.73;5.23;;;17.50;99.90;;;;;;5489340;26;20555;-66
2024/04/13 06:19:00;;;;;;;6.37;4.03;;;17.50;99.90;;;;;;5489323;26;20491;-66
2024/04/13 06:21:26;;;;;;;6.70;4.40;;;17.50;99.90;;;;;;5489347;26;20236;-66
2024/04/13 06:23:54;;;;;;;6.83;4.70;;;17.30;99.90;;;;;;5489200;26;20447;-66
2024/04/13 06:26:20;;;;;;;5.50;4.63;;;17.20;99.90;;;;;;5489084;26;20236;-66
2024/04/13 06:28:48;;;;;;;5.23;4.73;;;17.20;99.90;;;;;;5489165;26;20458;-66
2024/04/13 06:31:14;;;;;;;5.07;4.60;;;17.30;99.90;;;;;;5489035;26;20697;-66
2024/04/13 06:33:43;;;;;;;5.40;4.77;;;17.40;99.90;;;;;;5488984;26;20495;-66
2024/04/13 06:36:11;;;;;;;6.43;4.30;;;17.70;99.90;;;;;;5489139;26;20208;-66
2024/04/13 06:38:40;;;;;;;5.00;4.60;;;17.90;99.90;;;;;;5488935;26;20491;-66
2024/04/13 06:41:05;;;;;;;5.33;4.83;;;18.10;99.90;;;;;;5488828;26;20455;-66
2024/04/13 06:43:33;;;;;;;4.60;4.20;;;18.20;99.90;;;;;;5489030;26;20500;-66
2024/04/13 06:45:59;;;;;;;5.43;4.87;;;18.30;99.90;;;;;;5488778;26;20248;-66
2024/04/13 06:48:28;;;;;;;4.27;3.87;;;18.20;99.90;;;;;;5488727;26;20829;-67
2024/04/13 06:50:54;;;;;;;5.23;4.73;;;18.20;99.90;;;;;;5488503;26;20206;-66
2024/04/13 06:53:25;;;;;;;4.33;3.93;;;18.30;99.90;;;;;;5488444;26;20451;-66
2024/04/13 06:55:50;;;;;;;5.53;4.90;;;18.30;99.90;;;;;;5488662;26;20230;-66
2024/04/13 06:58:23;;;;;;;5.20;4.73;;;18.40;99.90;;;;;;5488657;26;20897;-66
2024/04/13 07:00:54;;;;;;;5.00;4.50;;;18.50;99.90;;;;;;5488641;26;20206;-66
2024/04/13 07:03:22;;;;;;;5.63;4.37;;;18.60;99.90;;;;;;5488444;26;20458;-66
2024/04/13 07:05:54;;;;;;;5.03;4.70;;;18.70;99.90;;;;;;5488361;26;20495;-66
2024/04/13 07:08:25;;;;;;;7.37;4.43;;;18.70;99.90;;;;;;5491798;26;20451;-66
2024/04/13 07:10:50;;;;;;;4.80;4.43;;;18.80;99.90;;;;;;5492320;26;20957;-66
2024/04/13 07:13:18;;;;;;;6.47;4.93;;;18.90;99.90;;;;;;5492353;26;20552;-66
2024/04/13 07:15:44;;;;;;;6.40;4.87;;;18.90;99.90;;;;;;5492032;26;20674;-66
2024/04/13 07:18:12;;;;;;;5.73;5.03;;;19.00;99.90;;;;;;5492047;26;20499;-66
2024/04/13 07:20:38;;;;;;;4.40;3.77;;;18.90;99.90;;;;;;5492085;26;20244;-67
2024/04/13 07:23:06;;;;;;;5.87;4.80;;;19.00;99.90;;;;;;5492059;26;20462;-66
2024/04/13 07:25:35;;;;;;;7.77;4.87;;;19.20;99.90;;;;;;5491895;26;20248;-66
2024/04/13 07:28:03;;;;;;;5.73;4.40;;;19.30;99.90;;;;;;5491690;26;20454;-66
2024/04/13 07:30:28;;;;;;;5.40;4.90;;;19.50;99.90;;;;;;5491679;26;20439;-66
2024/04/13 07:32:56;;;;;;;6.03;5.00;;;19.60;99.90;;;;;;5491756;26;20499;-66
2024/04/13 07:35:22;;;;;;;5.03;4.67;;;19.90;99.90;;;;;;5491686;26;20245;-66
2024/04/13 07:37:50;;;;;;;8.60;5.90;;;19.90;99.90;;;;;;5491781;26;20454;-66
2024/04/13 07:40:16;;;;;;;4.53;3.70;;;19.90;99.90;;;;;;5491686;26;20573;-66
2024/04/13 07:42:46;;;;;;;4.83;4.40;;;19.90;99.90;;;;;;5491568;26;20443;-66
2024/04/13 07:45:12;;;;;;;4.00;3.80;;;20.00;99.90;;;;;;5491450;26;20218;-66
2024/04/13 07:47:40;;;;;;;6.77;4.33;;;20.20;99.90;;;;;;5491637;26;20506;-67
2024/04/13 07:50:06;;;;;;;5.90;5.30;;;20.30;99.90;;;;;;5491494;26;20214;-67
2024/04/13 07:52:35;;;;;;;6.07;5.50;;;20.30;99.90;;;;;;5491482;26;20446;-66
2024/04/13 07:55:01;;;;;;;6.33;4.90;;;20.20;99.90;;;;;;5491357;26;20569;-66
2024/04/13 07:57:30;;;;;;;5.67;5.00;;;20.10;99.90;;;;;;5491356;26;20507;-66
2024/04/13 07:59:58;;;;;;;6.93;6.23;;;20.20;99.90;;;;;;5491247;26;20492;-66
2024/04/13 08:02:26;;;;;;;5.43;4.87;;;20.10;99.90;;;;;;5491528;26;20496;-66
2024/04/13 08:04:52;;;;;;;4.97;4.50;;;20.00;99.90;;;;;;5491199;26;20958;-67
2024/04/13 08:07:20;;;;;;;5.40;4.90;;;20.10;99.90;;;;;;5491040;26;20494;-67
2024/04/13 08:09:45;;;;;;;6.50;5.97;;;20.30;99.90;;;;;;5491035;26;20455;-66
2024/04/13 08:12:14;;;;;;;5.50;4.60;;;20.40;99.90;;;;;;5491034;26;20447;-66
2024/04/13 08:14:39;;;;;;;5.63;5.23;;;20.50;99.90;;;;;;5491131;26;20206;-66
2024/04/13 08:17:10;;;;;;;6.90;5.37;;;20.70;99.90;;;;;;5491230;26;20966;-66
2024/04/13 08:19:36;;;;;;;7.53;5.23;;;20.70;99.90;;;;;;5489847;26;20219;-67
2024/04/13 08:22:05;;;;;;;7.33;5.60;;;20.80;99.90;;;;;;5490864;26;20498;-66
2024/04/13 08:24:32;;;;;;;9.20;6.40;;;20.60;99.90;;;;;;5491015;26;20293;-66
2024/04/13 08:27:00;;;;;;;8.33;6.87;;;20.40;99.90;;;;;;5490815;26;20454;-67
2024/04/13 08:29:25;;;;;;;8.00;6.93;;;20.40;99.90;;;;;;5491000;26;20509;-66
2024/04/13 08:31:53;;;;;;;6.17;5.60;;;20.40;99.90;;;;;;5490791;26;20462;-66
2024/04/13 08:34:22;;;;;;;7.10;6.50;;;20.40;99.90;;;;;;5490956;26;20218;-66
2024/04/13 08:36:50;;;;;;;7.23;5.50;;;20.20;99.90;;;;;;5490893;26;20463;-66
2024/04/13 08:39:15;;;;;;;6.47;5.90;;;20.10;99.90;;;;;;5490771;26;20503;-66
2024/04/13 08:41:49;;;;;;;7.50;5.33;;;20.10;99.90;;;;;;5491018;26;20451;-66
2024/04/13 08:44:16;;;;;;;6.07;4.60;;;20.30;99.90;;;;;;5490773;26;20214;-67
2024/04/13 08:46:46;;;;;;;5.63;4.60;;;20.50;99.90;;;;;;5490519;26;20499;-64
2024/04/13 08:49:15;;;;;;;5.83;5.00;;;20.80;99.90;;;;;;5490646;26;20855;-66
2024/04/13 08:51:47;;;;;;;4.77;4.07;;;20.90;99.90;;;;;;5490504;26;20499;-66
2024/04/13 08:54:14;;;;;;;4.40;4.00;;;20.80;99.90;;;;;;5490159;26;20974;-66
2024/04/13 08:56:44;;;;;;;4.10;3.80;;;21.00;99.90;;;;;;5490684;26;20451;-66
2024/04/13 08:59:11;;;;;;;4.00;3.70;;;21.00;99.90;;;;;;5490341;26;20490;-67
2024/04/13 09:01:40;;;;;;;5.20;3.60;;;20.80;99.90;;;;;;5490374;26;20463;-66
2024/04/13 09:04:07;;;;;;;3.50;3.20;;;20.80;99.90;;;;;;5490553;26;20458;-67
2024/04/13 09:06:35;;;;;;;3.90;3.60;;;20.80;99.90;;;;;;5490207;26;20443;-67
2024/04/13 09:09:08;;;;;;;3.60;3.40;;;20.80;99.90;;;;;;5490288;26;20736;-67
2024/04/13 09:11:36;;;;;;;3.87;3.57;;;20.70;99.90;;;;;;5490323;26;20450;-66
2024/04/13 09:14:02;;;;;;;3.67;3.37;;;20.70;99.90;;;;;;5490208;26;20487;-67
2024/04/13 09:16:31;;;;;;;7.00;3.23;;;20.80;99.90;;;;;;5490175;26;20495;-66
2024/04/13 09:18:57;;;;;;;3.20;2.90;;;20.90;99.90;;;;;;5490263;26;20455;-67
2024/04/13 09:21:26;;;;;;;3.93;2.57;;;21.10;99.90;;;;;;5490134;26;20506;-66
2024/04/13 09:23:54;;;;;;;2.73;2.53;;;21.30;99.90;;;;;;5490022;26;21025;-67
2024/04/13 09:26:25;;;;;;;4.13;2.80;;;21.40;99.90;;;;;;5490333;26;20459;-67
2024/04/13 09:28:51;;;;;;;3.67;2.53;;;21.40;99.90;;;;;;5490050;26;20443;-67
2024/04/13 09:31:21;;;;;;;2.50;2.40;;;21.60;99.90;;;;;;5489699;26;20499;-67
2024/04/13 09:33:48;;;;;;;2.70;2.50;;;21.60;99.90;;;;;;5490222;26;20697;-67
2024/04/13 09:36:22;;;;;;;3.90;2.90;;;21.60;99.90;;;;;;5490226;26;20451;-67
2024/04/13 09:38:48;;;;;;;6.47;2.27;;;21.70;99.90;;;;;;5489933;26;20454;-67
2024/04/13 09:41:16;;;;;;;4.10;2.00;;;21.60;99.90;;;;;;5489919;26;20451;-67
2024/04/13 09:43:47;;;;;;;4.03;2.20;;;21.80;99.90;;;;;;5489861;26;20214;-67
2024/04/13 09:46:16;;;;;;;3.63;2.27;;;21.90;99.90;;;;;;5489741;26;20499;-67
2024/04/13 09:48:41;;;;;;;2.43;1.87;;;21.90;99.90;;;;;;5489540;26;20447;-67
2024/04/13 09:51:09;;;;;;;3.50;2.13;;;22.00;99.90;;;;;;5489688;26;20506;-67
2024/04/13 09:53:35;;;;;;;3.60;2.43;;;22.30;99.90;;;;;;5489705;26;20237;-67
2024/04/13 09:56:05;;;;;;;3.80;2.50;;;22.20;99.90;;;;;;5489441;26;20459;-67
2024/04/13 09:58:31;;;;;;;3.10;1.83;;;22.40;99.90;;;;;;5489421;26;20236;-67
2024/04/13 10:01:04;;;;;;;2.80;2.23;;;22.40;99.90;;;;;;5489671;26;20480;-67
2024/04/13 10:03:31;;;;;;;2.50;2.30;;;22.40;99.90;;;;;;5489512;26;20527;-65
2024/04/13 10:06:02;;;;;;;2.00;1.90;;;22.50;99.90;;;;;;5489270;26;20447;-66
2024/04/13 10:08:30;;;;;;;1.87;1.77;;;22.50;99.90;;;;;;5489311;26;20439;-65
2024/04/13 10:11:02;;;;;;;4.23;2.00;;;22.50;99.90;;;;;;5489274;26;20451;-66
2024/04/13 10:13:31;;;;;;;2.43;1.80;;;22.30;99.90;;;;;;5489389;26;20443;-65
2024/04/13 10:16:04;;;;;;;3.07;2.17;;;22.20;99.90;;;;;;5489375;26;20458;-65
2024/04/13 10:18:29;;;;;;;2.67;2.47;;;22.30;99.90;;;;;;5489293;26;20439;-65
2024/04/13 10:20:58;;;;;;;5.50;1.80;;;22.30;99.90;;;;;;5489369;26;20443;-65
2024/04/13 10:23:24;;;;;;;2.53;2.10;;;22.30;99.90;;;;;;5489047;26;20271;-65
2024/04/13 10:25:59;;;;;;;2.90;1.80;;;22.50;99.90;;;;;;5489323;26;20966;-66
2024/04/13 10:28:24;;;;;;;1.93;1.83;;;22.70;99.90;;;;;;5489499;26;20209;-65
2024/04/13 10:30:55;;;;;;;2.80;1.60;;;22.80;99.90;;;;;;5489360;26;20446;-65
2024/04/13 10:33:25;;;;;;;1.80;1.60;;;22.80;99.90;;;;;;5489023;26;20236;-66
2024/04/13 10:35:59;;;;;;;1.70;1.60;;;23.00;99.90;;;;;;5488920;26;20455;-65
2024/04/13 10:38:26;;;;;;;1.70;1.60;;;23.20;99.90;;;;;;5488719;26;20646;-66
2024/04/13 10:40:54;;;;;;;2.63;1.90;;;23.40;99.90;;;;;;5489102;26;20503;-66
2024/04/13 10:43:21;;;;;;;3.07;1.93;;;23.30;99.90;;;;;;5492342;26;20447;-65
2024/04/13 10:45:53;;;;;;;3.00;1.90;;;22.90;99.90;;;;;;5492301;26;20499;-66
2024/04/13 10:48:19;;;;;;;2.27;1.53;;;22.80;99.90;;;;;;5492308;26;20486;-66
2024/04/13 10:50:51;;;;;;;1.90;1.70;;;22.80;99.90;;;;;;5492329;26;20447;-66
2024/04/13 10:53:18;;;;;;;4.10;2.03;;;22.70;99.90;;;;;;5492379;26;20454;-65
2024/04/13 10:55:46;;;;;;;1.70;1.57;;;22.80;99.90;;;;;;5492162;26;20511;-65
2024/04/13 10:58:12;;;;;;;2.10;1.57;;;22.90;99.90;;;;;;5492285;26;20485;-66
2024/04/13 11:00:45;;;;;;;1.40;1.27;;;22.60;99.90;;;;;;5492268;26;20962;-66
2024/04/13 11:03:10;;;;;;;2.30;1.40;;;22.60;99.90;;;;;;5492186;26;20704;-65
2024/04/13 11:05:41;;;;;;;2.83;1.50;;;22.50;99.90;;;;;;5492172;26;20450;-65
2024/04/13 11:08:09;;;;;;;2.27;1.50;;;22.60;99.90;;;;;;5491715;26;20249;-66
2024/04/13 11:10:37;;;;;;;1.50;1.40;;;22.70;99.90;;;;;;5491864;26;20454;-66
2024/04/13 11:13:05;;;;;;;2.07;1.77;;;22.90;99.90;;;;;;5491986;26;20443;-66
2024/04/13 11:15:34;;;;;;;2.23;1.93;;;23.00;99.90;;;;;;5491796;26;20527;-66
2024/04/13 11:17:59;;;;;;;7.67;2.07;;;23.20;99.90;;;;;;5491939;26;20499;-66
2024/04/13 11:20:30;;;;;;;4.50;1.70;;;23.30;99.90;;;;;;5491485;26;20455;-66
2024/04/13 11:22:56;;;;;;;3.90;1.60;;;23.40;99.90;;;;;;5491822;26;20209;-66
2024/04/13 11:25:27;;;;;;;3.00;2.07;;;23.60;99.90;;;;;;5492093;26;20486;-66
2024/04/13 11:27:53;;;;;;;4.03;1.67;;;23.70;99.90;;;;;;5491621;26;20459;-67
2024/04/13 11:30:21;;;;;;;3.63;1.80;;;23.90;99.90;;;;;;5491708;26;20827;-66
2024/04/13 11:32:47;;;;;;;2.50;1.70;;;23.80;99.90;;;;;;5491633;26;20244;-66
2024/04/13 11:35:16;;;;;;;2.43;1.57;;;23.70;99.90;;;;;;5491806;26;20454;-66
2024/04/13 11:37:41;;;;;;;7.43;2.93;;;23.60;99.90;;;;;;5491830;26;20207;-66
2024/04/13 11:40:13;;;;;;;3.53;2.00;;;23.40;99.90;;;;;;5491902;26;20447;-67
2024/04/13 11:42:41;;;;;;;1.80;1.40;;;23.50;99.90;;;;;;5491995;26;20563;-66
2024/04/13 11:45:11;;;;;;;2.07;1.87;;;23.70;99.90;;;;;;5491492;26;20511;-66
2024/04/13 11:47:36;;;;;;;2.10;1.50;;;23.90;99.90;;;;;;5491157;26;20451;-66
2024/04/13 11:50:06;;;;;;;1.50;1.40;;;24.10;99.90;;;;;;5491660;26;20494;-66
2024/04/13 11:52:31;;;;;;;3.97;1.70;;;24.20;99.90;;;;;;5490646;26;20318;-66
2024/04/13 11:54:59;;;;;;;4.53;2.27;;;24.30;99.90;;;;;;5490661;26;20483;-66
2024/04/13 11:57:25;;;;;;;2.00;1.90;;;24.40;99.90;;;;;;5491403;26;20294;-66
2024/04/13 11:59:56;;;;;;;3.57;2.20;;;24.40;99.90;;;;;;5491382;26;20462;-66
2024/04/13 12:02:22;;;;;;;2.00;1.70;;;24.50;99.90;;;;;;5491320;26;20205;-66
2024/04/13 12:04:50;;;;;;;1.80;1.70;;;24.50;99.90;;;;;;5491541;26;20502;-68
2024/04/13 12:07:16;;;;;;;3.13;2.00;;;24.60;99.90;;;;;;5491045;26;20988;-67
2024/04/13 12:09:44;;;;;;;3.37;1.33;;;24.50;99.90;;;;;;5491150;26;20495;-67
2024/04/13 12:12:12;;;;;;;1.90;1.70;;;24.70;99.90;;;;;;5491207;26;20232;-67
2024/04/13 12:14:40;;;;;;;3.53;1.80;;;24.90;99.90;;;;;;5491510;26;21056;-67
2024/04/13 12:17:08;;;;;;;3.00;1.80;;;25.00;99.90;;;;;;5491117;26;20450;-67
2024/04/13 12:19:36;;;;;;;1.73;1.57;;;25.00;99.90;;;;;;5491122;26;20981;-67
2024/04/13 12:22:02;;;;;;;2.27;1.83;;;24.90;99.90;;;;;;5490902;26;20544;-65
2024/04/13 12:24:30;;;;;;;1.70;1.60;;;24.90;99.90;;;;;;5490906;26;20439;-67
2024/04/13 12:26:56;;;;;;;1.70;1.60;;;25.10;99.90;;;;;;5490955;26;20681;-67
2024/04/13 12:29:24;;;;;;;2.13;1.60;;;25.10;99.90;;;;;;5491019;26;20493;-69
2024/04/13 12:31:50;;;;;;;1.83;1.63;;;25.00;99.90;;;;;;5491158;26;20209;-67
2024/04/13 12:34:21;;;;;;;1.70;1.60;;;24.90;99.90;;;;;;5490745;26;20499;-67
2024/04/13 12:36:46;;;;;;;1.73;1.63;;;25.00;99.90;;;;;;5490664;26;20217;-67
2024/04/13 12:39:16;;;;;;;2.80;1.37;;;25.00;99.90;;;;;;5490907;26;20500;-68
2024/04/13 12:41:42;;;;;;;2.40;1.33;;;25.10;99.90;;;;;;5490725;26;20569;-67
2024/04/13 12:44:10;;;;;;;2.40;1.40;;;25.10;99.90;;;;;;5490413;26;20451;-67
2024/04/13 12:46:36;;;;;;;2.33;1.43;;;24.90;99.90;;;;;;5490404;26;20217;-67
2024/04/13 12:49:05;;;;;;;12.07;10.80;;;25.00;99.90;;;;;;5490546;26;20508;-67
2024/04/13 12:51:33;;;;;;;1.63;1.50;;;25.00;99.90;;;;;;5490590;26;20958;-67